Terminal Aerodrome Forecast
Issued by NWS

Home | Current Version | Previous Version | Text Only | Print | Product List | Glossary On
Versions: 1 2 3 4 5 6 7 8 9 10 11 12 13 14 15 16 17 18 19 20 21 22
000
FTAK31 PAFA 161720
TAFAMC
TAF
PAMC 161720Z 1618/1718 14004KT 5SM -SN BR BKN012 OVC025
     FM161900 VRB03KT P6SM -SHSN BKN015 BKN050
     FM162200 VRB03KT P6SM SCT015 BKN050=

USA.gov is the U.S. government's official web portal to all federal, state and local government web resources and services.